createdAt,value
2017-06-29T00:00:06.691Z,27.09
2017-06-29T00:01:06.405Z,27.07
2017-06-29T00:02:07.036Z,27.13
2017-06-29T00:03:06.766Z,27.14
2017-06-29T00:04:07.110Z,27.1
2017-06-29T00:05:06.834Z,27.17
2017-06-29T00:06:06.874Z,27.09
2017-06-29T00:07:07.506Z,27.07
2017-06-29T00:08:06.609Z,27.12
2017-06-29T00:09:06.958Z,27.17
2017-06-29T00:10:06.980Z,27.12
2017-06-29T00:11:07.320Z,27.07
2017-06-29T00:12:07.345Z,27.1
2017-06-29T00:13:07.052Z,27.13
2017-06-29T00:14:06.786Z,27.1
2017-06-29T00:15:07.446Z,27.06
2017-06-29T00:16:06.848Z,27.07
2017-06-29T00:17:07.494Z,27.13
2017-06-29T00:18:07.217Z,27.13
2017-06-29T00:19:07.554Z,27.03
2017-06-29T00:20:07.575Z,27.06
2017-06-29T00:21:07.620Z,27
2017-06-29T00:22:07.640Z,27.06
2017-06-29T00:23:07.665Z,27
2017-06-29T00:24:07.381Z,27.06
2017-06-29T00:25:07.414Z,27.09
2017-06-29T00:26:07.448Z,27
2017-06-29T00:27:07.487Z,27.07
2017-06-29T00:28:07.509Z,27.04
2017-06-29T00:29:07.529Z,27.1
2017-06-29T00:30:07.569Z,27.03
2017-06-29T00:31:07.902Z,27.04
2017-06-29T00:32:07.938Z,27.03
2017-06-29T00:33:07.953Z,27.03
2017-06-29T00:34:07.681Z,27.07
2017-06-29T00:35:07.401Z,27
2017-06-29T00:36:07.736Z,26.97
2017-06-29T00:37:08.080Z,26.99
2017-06-29T00:38:07.806Z,27.06
2017-06-29T00:39:08.140Z,26.94
2017-06-29T00:40:08.166Z,27.02
2017-06-29T00:41:08.205Z,27.1
2017-06-29T00:42:07.600Z,27.09
2017-06-29T00:43:07.937Z,27
2017-06-29T00:44:08.279Z,27.04
2017-06-29T00:45:08.301Z,27.04
2017-06-29T00:46:08.349Z,27
2017-06-29T00:47:07.746Z,27.07
2017-06-29T00:48:08.080Z,27.03
2017-06-29T00:49:07.810Z,27.04
2017-06-29T00:50:08.150Z,26.95
2017-06-29T00:51:08.493Z,27.03
2017-06-29T00:52:08.529Z,27.03
2017-06-29T00:53:08.540Z,26.99
2017-06-29T00:54:08.263Z,26.99
2017-06-29T00:55:08.603Z,27.06
2017-06-29T00:56:08.635Z,27.04
2017-06-29T00:57:08.674Z,27
2017-06-29T00:58:08.700Z,27.06
2017-06-29T00:59:08.422Z,26.99
2017-06-29T01:00:08.750Z,26.92
2017-06-29T01:01:08.473Z,27
2017-06-29T01:02:08.502Z,26.99
2017-06-29T01:03:08.518Z,26.99
2017-06-29T01:04:08.875Z,27.03
2017-06-29T01:05:08.596Z,26.91
2017-06-29T01:06:08.924Z,27.04
2017-06-29T01:07:08.333Z,27
2017-06-29T01:08:09.277Z,26.94
2017-06-29T01:09:08.402Z,26.95
2017-06-29T01:10:08.735Z,26.94
2017-06-29T01:11:08.776Z,27.02
2017-06-29T01:12:08.788Z,26.89
2017-06-29T01:13:09.075Z,27.04
2017-06-29T01:14:08.854Z,26.95
2017-06-29T01:15:09.200Z,26.99
2017-06-29T01:16:09.217Z,27.03
2017-06-29T01:17:08.937Z,27
2017-06-29T01:18:09.535Z,26.97
2017-06-29T01:19:08.687Z,26.91
2017-06-29T01:20:08.716Z,26.94
2017-06-29T01:21:09.360Z,26.99
2017-06-29T01:22:09.395Z,26.94
2017-06-29T01:23:09.739Z,26.99
2017-06-29T01:24:09.143Z,27.02
2017-06-29T01:25:09.488Z,26.99
2017-06-29T01:26:09.204Z,27.03
2017-06-29T01:27:09.550Z,27.04
2017-06-29T01:28:09.202Z,26.94
2017-06-29T01:29:09.604Z,26.91
2017-06-29T01:30:09.632Z,27
2017-06-29T01:31:09.668Z,26.94
2017-06-29T01:32:09.685Z,26.99
2017-06-29T01:33:10.022Z,27.06
2017-06-29T01:34:09.438Z,26.99
2017-06-29T01:35:09.774Z,27.03
2017-06-29T01:36:09.492Z,26.91
2017-06-29T01:37:09.829Z,26.97
2017-06-29T01:38:09.807Z,26.95
2017-06-29T01:39:09.899Z,27
2017-06-29T01:40:09.928Z,26.94
2017-06-29T01:41:09.957Z,26.94
2017-06-29T01:42:09.994Z,26.94
2017-06-29T01:43:10.007Z,26.91
2017-06-29T01:44:10.047Z,26.89
2017-06-29T01:45:10.064Z,26.94
2017-06-29T01:46:10.100Z,26.88
2017-06-29T01:47:09.813Z,26.91
2017-06-29T01:48:10.406Z,27
2017-06-29T01:49:09.879Z,26.95
2017-06-29T01:50:10.212Z,26.95
2017-06-29T01:51:10.241Z,26.91
2017-06-29T01:52:09.969Z,26.95
2017-06-29T01:53:10.603Z,26.95
2017-06-29T01:54:10.334Z,27.02
2017-06-29T01:55:09.732Z,26.95
2017-06-29T01:56:10.084Z,27.03
2017-06-29T01:57:10.113Z,27.03
2017-06-29T01:58:10.748Z,26.91
2017-06-29T01:59:10.170Z,27.02
2017-06-29T02:00:10.535Z,26.94
2017-06-29T02:01:10.227Z,26.94
2017-06-29T02:02:10.250Z,27.03
2017-06-29T02:03:10.838Z,26.94
2017-06-29T02:04:10.630Z,26.91
2017-06-29T02:05:10.651Z,26.91
2017-06-29T02:06:10.698Z,26.91
2017-06-29T02:07:10.397Z,26.94
2017-06-29T02:08:11.053Z,26.92
2017-06-29T02:09:10.467Z,26.99
2017-06-29T02:10:10.796Z,26.95
2017-06-29T02:11:10.521Z,26.89
2017-06-29T02:12:10.538Z,26.92
2017-06-29T02:13:11.176Z,26.97
2017-06-29T02:14:10.919Z,26.87
2017-06-29T02:15:10.940Z,26.92
2017-06-29T02:16:10.670Z,26.92
2017-06-29T02:17:11.024Z,26.88
2017-06-29T02:18:11.308Z,26.92
2017-06-29T02:19:11.055Z,26.92
2017-06-29T02:20:11.100Z,26.85
2017-06-29T02:21:10.801Z,26.85
2017-06-29T02:22:10.842Z,26.87
2017-06-29T02:23:11.477Z,26.82
2017-06-29T02:24:11.209Z,26.89
2017-06-29T02:25:10.612Z,26.85
2017-06-29T02:26:11.263Z,26.88
2017-06-29T02:27:11.295Z,26.91
2017-06-29T02:28:11.574Z,26.8
2017-06-29T02:29:11.363Z,26.95
2017-06-29T02:30:11.387Z,26.87
2017-06-29T02:31:11.414Z,26.81
2017-06-29T02:32:11.450Z,26.91
2017-06-29T02:33:11.484Z,26.88
2017-06-29T02:34:11.205Z,26.95
2017-06-29T02:35:11.532Z,26.89
2017-06-29T02:36:11.558Z,26.88
2017-06-29T02:37:11.286Z,26.8
2017-06-29T02:38:11.627Z,26.85
2017-06-29T02:39:11.648Z,26.85
2017-06-29T02:40:11.672Z,26.81
2017-06-29T02:41:11.741Z,26.89
2017-06-29T02:42:11.423Z,26.85
2017-06-29T02:43:11.771Z,26.85
2017-06-29T02:44:11.803Z,26.88
2017-06-29T02:45:11.506Z,26.91
2017-06-29T02:46:11.544Z,26.91
2017-06-29T02:47:11.882Z,26.81
2017-06-29T02:48:11.296Z,26.87
2017-06-29T02:49:11.944Z,26.85
2017-06-29T02:50:11.968Z,26.81
2017-06-29T02:51:11.686Z,26.84
2017-06-29T02:52:11.408Z,26.88
2017-06-29T02:53:12.055Z,26.76
2017-06-29T02:54:12.093Z,26.84
2017-06-29T02:55:12.117Z,26.82
2017-06-29T02:56:11.834Z,26.81
2017-06-29T02:57:12.171Z,26.82
2017-06-29T02:58:12.203Z,26.81
2017-06-29T02:59:12.237Z,26.8
2017-06-29T03:00:11.632Z,26.81
2017-06-29T03:01:11.978Z,26.8
2017-06-29T03:02:12.047Z,26.82
2017-06-29T03:03:12.349Z,26.82
2017-06-29T03:04:12.373Z,26.81
2017-06-29T03:05:12.093Z,26.8
2017-06-29T03:06:12.126Z,26.76
2017-06-29T03:07:11.848Z,26.81
2017-06-29T03:08:12.181Z,26.8
2017-06-29T03:09:12.826Z,26.73
2017-06-29T03:10:12.253Z,26.69
2017-06-29T03:11:12.571Z,26.75
2017-06-29T03:12:12.607Z,26.81
2017-06-29T03:13:12.638Z,26.76
2017-06-29T03:14:12.912Z,26.8
2017-06-29T03:15:12.701Z,26.73
2017-06-29T03:16:12.733Z,26.81
2017-06-29T03:17:12.766Z,26.81
2017-06-29T03:18:12.771Z,26.81
2017-06-29T03:19:12.805Z,26.72
2017-06-29T03:20:12.845Z,26.81
2017-06-29T03:21:12.874Z,26.77
2017-06-29T03:22:12.902Z,26.75
2017-06-29T03:23:12.930Z,26.7
2017-06-29T03:24:12.593Z,26.69
2017-06-29T03:25:12.676Z,26.69
2017-06-29T03:26:13.019Z,26.72
2017-06-29T03:27:13.051Z,26.75
2017-06-29T03:28:13.081Z,26.75
2017-06-29T03:29:13.408Z,26.72
2017-06-29T03:30:13.136Z,26.66
2017-06-29T03:31:13.149Z,26.76
2017-06-29T03:32:13.179Z,26.72
2017-06-29T03:33:12.896Z,26.8
2017-06-29T03:34:13.558Z,26.75
2017-06-29T03:35:12.969Z,26.81
2017-06-29T03:36:13.311Z,26.8
2017-06-29T03:37:13.334Z,26.8
2017-06-29T03:38:13.364Z,26.8
2017-06-29T03:39:13.336Z,26.72
2017-06-29T03:40:13.122Z,26.69
2017-06-29T03:41:13.482Z,26.75
2017-06-29T03:42:13.503Z,26.77
2017-06-29T03:43:13.521Z,26.67
2017-06-29T03:44:13.477Z,26.73
2017-06-29T03:45:13.589Z,26.67
2017-06-29T03:46:13.599Z,26.72
2017-06-29T03:47:13.635Z,26.76
2017-06-29T03:48:13.667Z,26.69
2017-06-29T03:49:13.941Z,26.73
2017-06-29T03:50:13.718Z,26.72
2017-06-29T03:51:13.425Z,26.67
2017-06-29T03:52:13.486Z,26.69
2017-06-29T03:53:13.499Z,26.8
2017-06-29T03:54:13.782Z,26.77
2017-06-29T03:55:13.234Z,26.75
2017-06-29T03:56:13.586Z,26.7
2017-06-29T03:57:13.920Z,26.72
2017-06-29T03:58:13.656Z,26.66
2017-06-29T03:59:14.278Z,26.7
2017-06-29T04:00:13.996Z,26.66
2017-06-29T04:01:13.727Z,26.72
2017-06-29T04:02:14.075Z,26.66
2017-06-29T04:03:13.784Z,26.67
2017-06-29T04:04:14.374Z,26.62
2017-06-29T04:05:14.142Z,26.63
2017-06-29T04:06:14.179Z,26.66
2017-06-29T04:07:13.886Z,26.65
2017-06-29T04:08:14.236Z,26.67
2017-06-29T04:09:14.564Z,26.66
2017-06-29T04:10:14.302Z,26.63
2017-06-29T04:11:14.330Z,26.6
2017-06-29T04:12:14.364Z,26.7
2017-06-29T04:13:14.083Z,26.75
2017-06-29T04:14:14.353Z,26.75
2017-06-29T04:15:13.825Z,26.67
2017-06-29T04:16:14.475Z,26.67
2017-06-29T04:17:14.207Z,26.58
2017-06-29T04:18:14.541Z,26.66
2017-06-29T04:19:14.865Z,26.66
2017-06-29T04:20:14.593Z,26.65
2017-06-29T04:21:14.607Z,26.66
2017-06-29T04:22:14.650Z,26.63
2017-06-29T04:23:14.679Z,26.6
2017-06-29T04:24:14.956Z,26.65
2017-06-29T04:25:14.738Z,26.63
2017-06-29T04:26:14.772Z,26.66
2017-06-29T04:27:14.796Z,26.6
2017-06-29T04:28:14.828Z,26.62
2017-06-29T04:29:15.112Z,26.72
2017-06-29T04:30:14.894Z,26.66
2017-06-29T04:31:14.906Z,26.76
2017-06-29T04:32:14.983Z,26.7
2017-06-29T04:33:14.964Z,26.75
2017-06-29T04:34:14.992Z,26.67
2017-06-29T04:35:14.718Z,26.63
2017-06-29T04:36:14.759Z,26.66
2017-06-29T04:37:14.773Z,26.63
2017-06-29T04:38:14.797Z,26.66
2017-06-29T04:39:15.079Z,26.69
2017-06-29T04:40:14.854Z,26.72
2017-06-29T04:41:14.887Z,26.62
2017-06-29T04:42:14.607Z,26.63
2017-06-29T04:43:15.256Z,26.67
2017-06-29T04:44:14.911Z,26.67
2017-06-29T04:45:15.318Z,26.58
2017-06-29T04:46:15.035Z,26.67
2017-06-29T04:47:15.064Z,26.67
2017-06-29T04:48:15.404Z,26.62
2017-06-29T04:49:15.685Z,26.66
2017-06-29T04:50:15.458Z,26.72
2017-06-29T04:51:15.495Z,26.65
2017-06-29T04:52:15.516Z,26.76
2017-06-29T04:53:15.553Z,26.69
2017-06-29T04:54:14.950Z,26.8
2017-06-29T04:55:15.294Z,26.67
2017-06-29T04:56:15.643Z,26.75
2017-06-29T04:57:15.660Z,26.7
2017-06-29T04:58:15.697Z,26.7
2017-06-29T04:59:15.097Z,26.72
2017-06-29T05:00:15.746Z,26.77
2017-06-29T05:01:15.780Z,26.69
2017-06-29T05:02:15.496Z,26.69
2017-06-29T05:03:15.837Z,26.67
2017-06-29T05:04:15.866Z,26.8
2017-06-29T05:05:15.894Z,26.72
2017-06-29T05:06:15.924Z,26.77
2017-06-29T05:07:15.636Z,26.76
2017-06-29T05:08:15.976Z,26.73
2017-06-29T05:09:16.010Z,26.7
2017-06-29T05:10:15.778Z,26.66
2017-06-29T05:11:15.764Z,26.76
2017-06-29T05:12:15.787Z,26.81
2017-06-29T05:13:16.120Z,26.77
2017-06-29T05:14:16.158Z,26.67
2017-06-29T05:15:16.211Z,26.75
2017-06-29T05:16:15.968Z,26.76
2017-06-29T05:17:15.929Z,26.76
2017-06-29T05:18:15.961Z,26.6
2017-06-29T05:19:15.991Z,26.69
2017-06-29T05:20:15.714Z,26.65
2017-06-29T05:21:16.368Z,26.63
2017-06-29T05:22:16.397Z,26.63
2017-06-29T05:23:16.113Z,26.65
2017-06-29T05:24:16.153Z,26.67
2017-06-29T05:25:16.483Z,26.69
2017-06-29T05:26:16.191Z,26.6
2017-06-29T05:27:16.531Z,26.67
2017-06-29T05:28:16.560Z,26.69
2017-06-29T05:29:16.594Z,26.66
2017-06-29T05:30:16.314Z,26.69
2017-06-29T05:31:16.348Z,26.65
2017-06-29T05:32:16.684Z,26.63
2017-06-29T05:33:16.389Z,26.73
2017-06-29T05:34:16.763Z,26.66
2017-06-29T05:35:16.485Z,26.66
2017-06-29T05:36:16.484Z,26.54
2017-06-29T05:37:16.825Z,26.55
2017-06-29T05:38:16.857Z,26.54
2017-06-29T05:39:16.574Z,26.6
2017-06-29T05:40:17.214Z,26.65
2017-06-29T05:41:16.628Z,26.7
2017-06-29T05:42:16.355Z,26.63
2017-06-29T05:43:17.006Z,26.69
2017-06-29T05:44:17.047Z,26.62
2017-06-29T05:45:16.994Z,26.51
2017-06-29T05:46:17.080Z,26.57
2017-06-29T05:47:17.110Z,26.66
2017-06-29T05:48:17.138Z,26.67
2017-06-29T05:49:16.871Z,26.65
2017-06-29T05:50:17.520Z,26.51
2017-06-29T05:51:17.237Z,26.62
2017-06-29T05:52:16.954Z,26.52
2017-06-29T05:53:17.295Z,26.63
2017-06-29T05:54:17.318Z,26.58
2017-06-29T05:55:17.642Z,26.58
2017-06-29T05:56:17.376Z,26.54
2017-06-29T05:57:17.408Z,26.58
2017-06-29T05:58:17.132Z,26.6
2017-06-29T05:59:17.466Z,26.55
2017-06-29T06:00:17.738Z,26.62
2017-06-29T06:01:17.520Z,26.55
2017-06-29T06:02:17.540Z,26.62
2017-06-29T06:03:17.589Z,26.63
2017-06-29T06:04:17.303Z,26.6
2017-06-29T06:05:17.643Z,26.62
2017-06-29T06:06:17.360Z,26.5
2017-06-29T06:07:17.700Z,26.63
2017-06-29T06:08:17.406Z,26.55
2017-06-29T06:09:17.117Z,26.52
2017-06-29T06:10:18.040Z,26.57
2017-06-29T06:11:17.813Z,26.55
2017-06-29T06:12:17.533Z,26.54
2017-06-29T06:13:17.874Z,26.55
2017-06-29T06:14:17.902Z,26.52
2017-06-29T06:15:17.866Z,26.58
2017-06-29T06:16:17.656Z,26.54
2017-06-29T06:17:18.010Z,26.58
2017-06-29T06:18:18.026Z,26.55
2017-06-29T06:19:18.044Z,26.54
2017-06-29T06:20:18.364Z,26.57
2017-06-29T06:21:18.088Z,26.54
2017-06-29T06:22:18.141Z,26.54
2017-06-29T06:23:18.167Z,26.57
2017-06-29T06:24:17.891Z,26.57
2017-06-29T06:25:18.478Z,26.55
2017-06-29T06:26:18.247Z,26.54
2017-06-29T06:27:17.985Z,26.52
2017-06-29T06:28:18.306Z,26.62
2017-06-29T06:29:18.347Z,26.5
2017-06-29T06:30:18.614Z,26.52
2017-06-29T06:31:18.381Z,26.55
2017-06-29T06:32:18.424Z,26.5
2017-06-29T06:33:18.138Z,26.48
2017-06-29T06:34:18.479Z,26.51
2017-06-29T06:35:18.806Z,26.51
2017-06-29T06:36:18.540Z,26.45
2017-06-29T06:37:17.949Z,26.44
2017-06-29T06:38:18.599Z,26.54
2017-06-29T06:39:18.318Z,26.47
2017-06-29T06:40:18.955Z,26.52
2017-06-29T06:41:18.677Z,26.5
2017-06-29T06:42:18.704Z,26.4
2017-06-29T06:43:18.426Z,26.51
2017-06-29T06:44:18.770Z,26.52
2017-06-29T06:45:18.492Z,26.48
2017-06-29T06:46:18.904Z,26.4
2017-06-29T06:47:18.858Z,26.4
2017-06-29T06:48:18.261Z,26.47
2017-06-29T06:49:18.914Z,26.47
2017-06-29T06:50:18.946Z,26.39
2017-06-29T06:51:18.967Z,26.5
2017-06-29T06:52:19.000Z,26.47
2017-06-29T06:53:19.071Z,26.52
2017-06-29T06:54:19.071Z,26.52
2017-06-29T06:55:19.091Z,26.52
2017-06-29T06:56:19.107Z,26.58
2017-06-29T06:57:18.820Z,26.62
2017-06-29T06:58:18.863Z,26.54
2017-06-29T06:59:19.212Z,26.63
2017-06-29T07:00:19.239Z,26.62
2017-06-29T07:01:19.283Z,26.62
2017-06-29T07:02:19.285Z,26.52
2017-06-29T07:03:19.314Z,26.52
2017-06-29T07:04:19.344Z,26.67
2017-06-29T07:05:19.376Z,26.65
2017-06-29T07:06:19.413Z,26.62
2017-06-29T07:07:19.429Z,26.65
2017-06-29T07:08:19.470Z,26.75
2017-06-29T07:09:19.184Z,26.67
2017-06-29T07:10:19.524Z,26.84
2017-06-29T07:11:19.557Z,26.82
2017-06-29T07:12:19.579Z,26.8
2017-06-29T07:13:19.610Z,26.75
2017-06-29T07:14:19.642Z,26.81
2017-06-29T07:15:19.671Z,26.82
2017-06-29T07:16:19.380Z,26.76
2017-06-29T07:17:19.729Z,26.82
2017-06-29T07:18:19.434Z,26.89
2017-06-29T07:19:19.787Z,26.85
2017-06-29T07:20:19.507Z,26.82
2017-06-29T07:21:19.853Z,26.88
2017-06-29T07:22:19.557Z,26.82
2017-06-29T07:23:19.591Z,26.91
2017-06-29T07:24:19.627Z,26.92
2017-06-29T07:25:19.996Z,26.87
2017-06-29T07:26:19.993Z,26.87
2017-06-29T07:27:20.017Z,26.99
2017-06-29T07:28:19.742Z,27.02
2017-06-29T07:29:20.080Z,26.95
2017-06-29T07:30:19.785Z,26.94
2017-06-29T07:31:19.825Z,26.95
2017-06-29T07:32:19.841Z,26.92
2017-06-29T07:33:20.186Z,27.03
2017-06-29T07:34:19.595Z,27.06
2017-06-29T07:35:19.935Z,27.03
2017-06-29T07:36:19.968Z,27.04
2017-06-29T07:37:20.313Z,27
2017-06-29T07:38:20.350Z,26.97
2017-06-29T07:39:20.363Z,27.07
2017-06-29T07:40:20.091Z,27
2017-06-29T07:41:20.416Z,27.03
2017-06-29T07:42:20.149Z,27.06
2017-06-29T07:43:19.861Z,27.02
2017-06-29T07:44:20.194Z,27.1
2017-06-29T07:45:20.548Z,27.02
2017-06-29T07:46:20.258Z,27.13
2017-06-29T07:47:20.598Z,27.13
2017-06-29T07:48:20.638Z,27.09
2017-06-29T07:49:20.710Z,27.07
2017-06-29T07:50:20.669Z,27.1
2017-06-29T07:51:20.969Z,27.1
2017-06-29T07:52:20.757Z,27.04
2017-06-29T07:53:20.476Z,27.07
2017-06-29T07:54:20.796Z,27.09
2017-06-29T07:55:20.512Z,27.09
2017-06-29T07:56:20.800Z,27.09
2017-06-29T07:57:20.890Z,27.09
2017-06-29T07:58:20.602Z,27.12
2017-06-29T07:59:20.938Z,27.09
2017-06-29T08:00:20.675Z,27.1
2017-06-29T08:01:20.952Z,27.14
2017-06-29T08:02:21.040Z,27.18
2017-06-29T08:03:21.059Z,27.13
2017-06-29T08:04:21.091Z,27.28
2017-06-29T08:05:21.123Z,27.27
2017-06-29T08:06:21.092Z,27.17
2017-06-29T08:07:20.562Z,27.19
2017-06-29T08:08:21.214Z,27.22
2017-06-29T08:09:20.931Z,27.1
2017-06-29T08:10:21.279Z,27.24
2017-06-29T08:11:21.596Z,27.1
2017-06-29T08:12:21.334Z,27.14
2017-06-29T08:13:21.038Z,27.25
2017-06-29T08:14:21.132Z,27.21
2017-06-29T08:15:21.408Z,27.24
2017-06-29T08:16:21.709Z,27.22
2017-06-29T08:17:21.479Z,27.24
2017-06-29T08:18:21.190Z,27.24
2017-06-29T08:19:21.547Z,27.19
2017-06-29T08:20:21.300Z,27.25
2017-06-29T08:21:21.526Z,27.24
2017-06-29T08:22:21.625Z,27.24
2017-06-29T08:23:21.667Z,27.29
2017-06-29T08:24:21.683Z,27.27
2017-06-29T08:25:21.712Z,27.32
2017-06-29T08:26:21.993Z,27.29
2017-06-29T08:27:21.769Z,27.25
2017-06-29T08:28:21.495Z,27.28
2017-06-29T08:29:21.212Z,27.29
2017-06-29T08:30:21.547Z,27.27
2017-06-29T08:31:21.837Z,27.36
2017-06-29T08:32:21.910Z,27.32
2017-06-29T08:33:21.947Z,27.25
2017-06-29T08:34:21.984Z,27.29
2017-06-29T08:35:21.701Z,27.28
2017-06-29T08:36:22.341Z,27.22
2017-06-29T08:37:22.069Z,27.22
2017-06-29T08:38:22.100Z,27.22
2017-06-29T08:39:22.109Z,27.21
2017-06-29T08:40:22.153Z,27.22
2017-06-29T08:41:22.438Z,27.32
2017-06-29T08:42:21.923Z,27.28
2017-06-29T08:43:22.253Z,27.34
2017-06-29T08:44:22.271Z,27.4
2017-06-29T08:45:22.301Z,27.29
2017-06-29T08:46:22.588Z,27.36
2017-06-29T08:47:22.361Z,27.32
2017-06-29T08:48:22.389Z,27.34
2017-06-29T08:49:22.423Z,27.32
2017-06-29T08:50:22.134Z,27.32
2017-06-29T08:51:22.177Z,27.34
2017-06-29T08:52:22.197Z,27.37
2017-06-29T08:53:22.227Z,27.32
2017-06-29T08:54:22.242Z,27.31
2017-06-29T08:55:22.288Z,27.21
2017-06-29T08:56:22.321Z,27.31
2017-06-29T08:57:22.654Z,27.29
2017-06-29T08:58:22.688Z,27.31
2017-06-29T08:59:22.708Z,27.25
2017-06-29T09:00:22.120Z,27.29
2017-06-29T09:01:22.761Z,27.22
2017-06-29T09:02:22.805Z,27.36
2017-06-29T09:03:22.838Z,27.34
2017-06-29T09:04:22.859Z,27.31
2017-06-29T09:05:22.891Z,27.32
2017-06-29T09:06:22.920Z,27.37
2017-06-29T09:07:22.950Z,27.39
2017-06-29T09:08:22.978Z,27.28
2017-06-29T09:09:22.692Z,27.31
2017-06-29T09:10:23.044Z,27.29
2017-06-29T09:11:22.762Z,27.24
2017-06-29T09:12:23.351Z,27.25
2017-06-29T09:13:23.126Z,27.24
2017-06-29T09:14:22.851Z,27.31
2017-06-29T09:15:23.193Z,27.29
2017-06-29T09:16:23.213Z,27.31
2017-06-29T09:17:23.507Z,27.29
2017-06-29T09:18:23.272Z,27.31
2017-06-29T09:19:23.307Z,27.32
2017-06-29T09:20:23.028Z,27.32
2017-06-29T09:21:23.045Z,27.37
2017-06-29T09:22:23.330Z,27.37
2017-06-29T09:23:23.111Z,27.41
2017-06-29T09:24:23.456Z,27.39
2017-06-29T09:25:23.171Z,27.34
2017-06-29T09:26:23.509Z,27.46
2017-06-29T09:27:23.475Z,27.41
2017-06-29T09:28:22.943Z,27.36
2017-06-29T09:29:23.601Z,27.41
2017-06-29T09:30:23.326Z,27.37
2017-06-29T09:31:23.662Z,27.36
2017-06-29T09:32:23.675Z,27.43
2017-06-29T09:33:23.714Z,27.44
2017-06-29T09:34:23.444Z,27.44
2017-06-29T09:35:23.768Z,27.44
2017-06-29T09:36:23.806Z,27.43
2017-06-29T09:37:24.086Z,27.43
2017-06-29T09:38:23.863Z,27.4
2017-06-29T09:39:23.592Z,27.37
2017-06-29T09:40:23.613Z,27.4
2017-06-29T09:41:23.938Z,27.37
2017-06-29T09:42:23.978Z,27.32
2017-06-29T09:43:24.020Z,27.34
2017-06-29T09:44:24.040Z,27.39
2017-06-29T09:45:24.065Z,27.32
2017-06-29T09:46:23.794Z,27.37
2017-06-29T09:47:24.126Z,27.4
2017-06-29T09:48:23.843Z,27.32
2017-06-29T09:49:23.873Z,27.37
2017-06-29T09:50:24.205Z,27.32
2017-06-29T09:51:23.933Z,27.34
2017-06-29T09:52:24.539Z,27.24
2017-06-29T09:53:24.320Z,27.29
2017-06-29T09:54:24.333Z,27.21
2017-06-29T09:55:24.049Z,27.25
2017-06-29T09:56:24.409Z,27.25
2017-06-29T09:57:24.425Z,27.25
2017-06-29T09:58:24.452Z,27.18
2017-06-29T09:59:24.180Z,27.27
2017-06-29T10:00:24.525Z,27.12
2017-06-29T10:01:24.248Z,27.27
2017-06-29T10:02:24.264Z,27.28
2017-06-29T10:03:24.608Z,27.25
2017-06-29T10:04:24.628Z,27.14
2017-06-29T10:05:24.354Z,27.14
2017-06-29T10:06:24.695Z,27.22
2017-06-29T10:07:24.716Z,27.19
2017-06-29T10:08:24.748Z,27.14
2017-06-29T10:09:24.792Z,27.14
2017-06-29T10:10:24.817Z,27.27
2017-06-29T10:11:24.526Z,27.18
2017-06-29T10:12:24.899Z,27.18
2017-06-29T10:13:24.908Z,27.27
2017-06-29T10:14:24.616Z,27.18
2017-06-29T10:15:24.653Z,27.1
2017-06-29T10:16:24.986Z,27.25
2017-06-29T10:17:25.007Z,27.32
2017-06-29T10:18:25.040Z,27.19
2017-06-29T10:19:24.447Z,27.29
2017-06-29T10:20:24.477Z,27.32
2017-06-29T10:21:25.129Z,27.29
2017-06-29T10:22:25.163Z,27.22
2017-06-29T10:23:25.200Z,27.34
2017-06-29T10:24:25.223Z,27.37
2017-06-29T10:25:24.942Z,27.37
2017-06-29T10:26:25.286Z,27.44
2017-06-29T10:27:25.311Z,27.44
2017-06-29T10:28:25.344Z,27.57
2017-06-29T10:29:25.363Z,27.54
2017-06-29T10:30:25.401Z,27.59
2017-06-29T10:31:25.115Z,27.49
2017-06-29T10:32:25.459Z,27.57
2017-06-29T10:33:25.184Z,27.6
2017-06-29T10:34:25.200Z,27.69
2017-06-29T10:35:25.545Z,27.66
2017-06-29T10:36:25.586Z,27.72
2017-06-29T10:37:25.599Z,27.66
2017-06-29T10:38:25.934Z,27.69
2017-06-29T10:39:25.664Z,27.69
2017-06-29T10:40:25.693Z,27.77
2017-06-29T10:41:25.730Z,27.69
2017-06-29T10:42:25.455Z,27.74
2017-06-29T10:43:26.084Z,27.85
2017-06-29T10:44:25.501Z,27.85
2017-06-29T10:45:25.519Z,27.92
2017-06-29T10:46:25.567Z,27.87
2017-06-29T10:47:25.912Z,27.77
2017-06-29T10:48:26.176Z,27.87
2017-06-29T10:49:25.961Z,27.87
2017-06-29T10:50:25.677Z,27.93
2017-06-29T10:51:26.022Z,27.96
2017-06-29T10:52:26.055Z,27.88
2017-06-29T10:53:26.028Z,27.85
2017-06-29T10:54:25.804Z,27.99
2017-06-29T10:55:25.830Z,27.88
2017-06-29T10:56:26.170Z,27.93
2017-06-29T10:57:26.203Z,27.92
2017-06-29T10:58:26.492Z,27.87
2017-06-29T10:59:26.264Z,27.93
2017-06-29T11:00:26.295Z,27.96
2017-06-29T11:01:26.009Z,27.93
2017-06-29T11:02:26.354Z,27.97
2017-06-29T11:03:26.681Z,27.94
2017-06-29T11:04:26.417Z,27.96
2017-06-29T11:05:26.441Z,27.92
2017-06-29T11:06:26.470Z,27.93
2017-06-29T11:07:26.495Z,27.93
2017-06-29T11:08:26.794Z,27.9
2017-06-29T11:09:26.565Z,27.92
2017-06-29T11:10:26.283Z,27.99
2017-06-29T11:11:26.310Z,27.96
2017-06-29T11:12:26.648Z,27.99
2017-06-29T11:13:26.668Z,27.96
2017-06-29T11:14:26.397Z,27.99
2017-06-29T11:15:26.746Z,27.99
2017-06-29T11:16:26.771Z,27.99
2017-06-29T11:17:26.797Z,28.07
2017-06-29T11:18:27.084Z,28.04
2017-06-29T11:19:26.859Z,28.02
2017-06-29T11:20:26.886Z,28.09
2017-06-29T11:21:26.919Z,28.04
2017-06-29T11:22:26.640Z,28.09
2017-06-29T11:23:27.288Z,28.09
2017-06-29T11:24:26.697Z,28.14
2017-06-29T11:25:26.727Z,28.06
2017-06-29T11:26:26.758Z,28.03
2017-06-29T11:27:26.786Z,28.17
2017-06-29T11:28:27.123Z,28.04
2017-06-29T11:29:26.840Z,28.11
2017-06-29T11:30:26.878Z,28.09
2017-06-29T11:31:27.226Z,28.17
2017-06-29T11:32:27.254Z,28.11
2017-06-29T11:33:27.539Z,28.12
2017-06-29T11:34:27.303Z,28.17
2017-06-29T11:35:27.342Z,28.21
2017-06-29T11:36:27.371Z,28.18
2017-06-29T11:37:27.399Z,28.22
2017-06-29T11:38:27.433Z,28.27
2017-06-29T11:39:27.454Z,28.22
2017-06-29T11:40:26.870Z,28.34
2017-06-29T11:41:27.526Z,28.41
2017-06-29T11:42:27.548Z,28.41
2017-06-29T11:43:27.264Z,28.43
2017-06-29T11:44:27.604Z,28.54
2017-06-29T11:45:27.334Z,28.56
2017-06-29T11:46:27.675Z,28.71
2017-06-29T11:47:27.384Z,28.66
2017-06-29T11:48:27.717Z,28.76
2017-06-29T11:49:27.761Z,28.74
2017-06-29T11:50:27.798Z,28.8
2017-06-29T11:51:27.822Z,28.81
2017-06-29T11:52:27.552Z,28.85
2017-06-29T11:53:27.884Z,28.85
2017-06-29T11:54:27.917Z,28.83
2017-06-29T11:55:27.942Z,28.78
2017-06-29T11:56:27.356Z,28.86
2017-06-29T11:57:28.001Z,28.88
2017-06-29T11:58:27.728Z,28.9
2017-06-29T11:59:27.758Z,28.9
2017-06-29T12:00:28.099Z,28.98
2017-06-29T12:01:28.126Z,29.04
2017-06-29T12:02:28.160Z,29
2017-06-29T12:03:28.189Z,29
2017-06-29T12:04:28.229Z,29.05
2017-06-29T12:05:27.936Z,29.04
2017-06-29T12:06:27.962Z,29.09
2017-06-29T12:07:28.318Z,29.19
2017-06-29T12:08:28.336Z,29.23
2017-06-29T12:09:28.369Z,29.16
2017-06-29T12:10:28.402Z,29.26
2017-06-29T12:11:28.431Z,29.28
2017-06-29T12:12:28.152Z,29.33
2017-06-29T12:13:28.192Z,29.26
2017-06-29T12:14:28.781Z,29.26
2017-06-29T12:15:28.563Z,29.26
2017-06-29T12:16:28.591Z,29.31
2017-06-29T12:17:28.625Z,29.24
2017-06-29T12:18:28.658Z,29.21
2017-06-29T12:19:29.001Z,29.14
2017-06-29T12:20:28.721Z,29.15
2017-06-29T12:21:28.751Z,29.05
2017-06-29T12:22:28.787Z,29.08
2017-06-29T12:23:28.501Z,28.96
2017-06-29T12:24:29.089Z,29
2017-06-29T12:25:28.876Z,28.96
2017-06-29T12:26:28.895Z,28.86
2017-06-29T12:27:28.936Z,28.92
2017-06-29T12:28:28.957Z,28.93
2017-06-29T12:29:28.935Z,28.88
2017-06-29T12:30:29.029Z,28.88
2017-06-29T12:31:29.056Z,28.85
2017-06-29T12:32:28.775Z,28.8
2017-06-29T12:33:29.122Z,28.8
2017-06-29T12:34:29.450Z,28.76
2017-06-29T12:35:29.166Z,28.78
2017-06-29T12:36:28.904Z,28.78
2017-06-29T12:37:29.244Z,28.77
2017-06-29T12:38:28.957Z,28.81
2017-06-29T12:39:29.242Z,28.89
2017-06-29T12:40:29.330Z,28.9
2017-06-29T12:41:29.368Z,28.89
2017-06-29T12:42:29.380Z,28.88
2017-06-29T12:43:29.429Z,28.9
2017-06-29T12:44:29.434Z,28.96
2017-06-29T12:45:29.493Z,29
2017-06-29T12:46:29.199Z,29
2017-06-29T12:47:29.539Z,29
2017-06-29T12:48:29.581Z,28.88
2017-06-29T12:49:29.545Z,28.86
2017-06-29T12:50:29.642Z,28.85
2017-06-29T12:51:29.351Z,28.9
2017-06-29T12:52:29.697Z,28.8
2017-06-29T12:53:29.419Z,28.71
2017-06-29T12:54:29.385Z,28.71
2017-06-29T12:55:29.163Z,28.7
2017-06-29T12:56:29.836Z,28.66